Time;durP1;ratioP1;P1;durP2;ratioP2;P2;SDS_P1;SDS_P2;PMS_P1;PMS_P2;Temp;Humidity;BMP_temperature;BMP_pressure;BME280_temperature;BME280_humidity;BME280_pressure;Samples;Min_cycle;Max_cycle;Signal;HPM_P1;HPM_P2
2023/04/03 00:00:34;;;;;;;11.45;2.50;;;0.20;99.90;;;;;;4890253;29;20048;-66
2023/04/03 00:03:01;;;;;;;8.07;1.23;;;0.20;99.90;;;;;;4889832;29;20463;-64
2023/04/03 00:05:28;;;;;;;4.05;1.98;;;0.20;99.90;;;;;;4888321;29;20056;-63
2023/04/03 00:07:55;;;;;;;5.75;1.65;;;0.10;99.90;;;;;;4889321;29;20045;-61
2023/04/03 00:10:22;;;;;;;5.68;1.52;;;0.10;99.90;;;;;;4891859;29;20056;-60
2023/04/03 00:12:49;;;;;;;9.27;1.75;;;0.10;99.90;;;;;;4887016;29;20109;-63
2023/04/03 00:15:16;;;;;;;8.63;2.15;;;0.10;99.90;;;;;;4890360;29;20423;-60
2023/04/03 00:17:43;;;;;;;5.07;1.00;;;0.10;99.90;;;;;;4887125;29;20475;-66
2023/04/03 00:20:10;;;;;;;9.23;1.40;;;0.10;99.90;;;;;;4889943;29;20051;-62
2023/04/03 00:22:37;;;;;;;4.38;1.35;;;0.10;99.90;;;;;;4889780;29;20071;-64
2023/04/03 00:25:04;;;;;;;5.50;1.30;;;0.10;99.90;;;;;;4889667;29;20068;-61
2023/04/03 00:27:31;;;;;;;7.50;1.52;;;0.10;99.90;;;;;;4885643;29;20708;-61
2023/04/03 00:29:58;;;;;;;2.28;0.93;;;0.10;99.90;;;;;;4890207;29;20055;-62
2023/04/03 00:32:25;;;;;;;6.47;2.05;;;0.10;99.90;;;;;;4889292;29;20139;-60
2023/04/03 00:34:52;;;;;;;6.13;1.45;;;0.10;99.90;;;;;;4887769;29;20143;-61
2023/04/03 00:37:19;;;;;;;9.77;1.45;;;0.10;99.90;;;;;;4889393;29;20044;-62
2023/04/03 00:39:46;;;;;;;2.72;1.38;;;0.00;99.90;;;;;;4888895;29;20056;-61
2023/04/03 00:42:12;;;;;;;5.72;1.35;;;0.10;99.90;;;;;;4873832;29;20052;-60
2023/04/03 00:44:39;;;;;;;6.75;1.75;;;0.10;99.90;;;;;;4886582;29;20144;-61
2023/04/03 00:47:10;;;;;;;11.93;2.20;;;0.00;99.90;;;;;;4889658;29;20052;-60
2023/04/03 00:49:38;;;;;;;6.97;1.20;;;0.10;99.90;;;;;;4888258;29;20419;-65
2023/04/03 00:52:09;;;;;;;5.93;1.42;;;0.10;99.90;;;;;;4888702;29;20832;-60
2023/04/03 00:54:37;;;;;;;2.92;1.02;;;0.10;99.90;;;;;;4889727;29;20135;-63
2023/04/03 00:57:06;;;;;;;7.95;1.50;;;0.10;99.90;;;;;;4889581;29;20092;-65
2023/04/03 00:59:38;;;;;;;2.40;1.70;;;0.10;99.90;;;;;;4884241;29;20056;-61
2023/04/03 01:02:05;;;;;;;5.05;1.13;;;0.10;99.90;;;;;;4888090;29;20044;-60
2023/04/03 01:04:36;;;;;;;6.30;2.53;;;0.10;99.90;;;;;;4875801;29;20554;-62
2023/04/03 01:07:16;;;;;;;7.55;1.20;;;0.20;99.90;;;;;;4888831;29;20171;-63
2023/04/03 01:09:46;;;;;;;9.02;1.63;;;0.20;99.90;;;;;;4888265;29;20161;-62
2023/04/03 01:12:29;;;;;;;9.85;1.80;;;0.20;99.90;;;;;;4889081;29;20048;-64
2023/04/03 01:15:04;;;;;;;5.68;1.77;;;0.20;99.90;;;;;;4887993;29;20063;-63
2023/04/03 01:17:31;;;;;;;4.82;1.35;;;0.20;99.90;;;;;;4886754;29;20049;-61
2023/04/03 01:20:31;;;;;;;6.57;1.52;;;0.20;99.90;;;;;;4889254;29;20736;-61
2023/04/03 01:23:37;;;;;;;7.63;1.58;;;0.20;99.90;;;;;;4887294;29;20100;-63
2023/04/03 01:26:05;;;;;;;7.47;1.30;;;0.20;99.90;;;;;;4857800;29;20044;-66
2023/04/03 01:28:34;;;;;;;4.20;1.23;;;0.20;99.90;;;;;;4887063;29;20171;-61
2023/04/03 01:31:43;;;;;;;4.83;1.63;;;0.20;99.90;;;;;;4887446;29;20436;-64
2023/04/03 01:34:09;;;;;;;9.13;1.20;;;0.20;99.90;;;;;;4888713;29;20057;-62
2023/04/03 01:36:36;;;;;;;8.32;2.30;;;0.20;99.90;;;;;;4871559;29;20558;-60
2023/04/03 01:39:04;;;;;;;9.95;1.55;;;0.20;99.90;;;;;;4888857;29;20626;-61
2023/04/03 01:41:32;;;;;;;3.20;1.08;;;0.20;99.90;;;;;;4884751;29;20079;-62
2023/04/03 01:44:07;;;;;;;9.40;1.77;;;0.20;99.90;;;;;;4873923;29;20073;-63
2023/04/03 01:46:34;;;;;;;6.55;1.15;;;0.20;99.90;;;;;;4886576;29;20052;-66
2023/04/03 01:49:01;;;;;;;10.65;1.85;;;0.20;99.90;;;;;;4883926;29;20156;-67
2023/04/03 01:51:29;;;;;;;6.43;1.88;;;0.20;99.90;;;;;;4880012;29;20060;-61
2023/04/03 01:53:56;;;;;;;3.15;1.52;;;0.20;99.90;;;;;;4887352;29;20049;-64
2023/04/03 01:56:23;;;;;;;7.05;1.85;;;0.20;99.90;;;;;;4887768;29;20068;-66
2023/04/03 01:58:50;;;;;;;9.00;2.25;;;0.20;99.90;;;;;;4886736;29;20835;-63
2023/04/03 02:01:17;;;;;;;3.40;0.80;;;0.20;99.90;;;;;;4883457;29;20060;-61
2023/04/03 02:03:44;;;;;;;9.40;1.45;;;0.20;99.90;;;;;;4882952;29;20101;-64
2023/04/03 02:06:11;;;;;;;3.13;1.30;;;0.30;99.90;;;;;;4887088;29;20045;-68
2023/04/03 02:08:38;;;;;;;5.43;1.33;;;0.30;99.90;;;;;;4888815;29;20079;-61
2023/04/03 02:11:05;;;;;;;4.25;1.13;;;0.30;99.90;;;;;;4889842;29;20044;-67
2023/04/03 02:13:32;;;;;;;5.20;1.80;;;0.30;99.90;;;;;;4886952;29;20139;-64
2023/04/03 02:16:05;;;;;;;5.35;1.45;;;0.30;99.90;;;;;;4873709;29;20055;-60
2023/04/03 02:18:32;;;;;;;7.93;2.15;;;0.30;99.90;;;;;;4885767;29;20076;-61
2023/04/03 02:20:59;;;;;;;4.40;1.15;;;0.30;99.90;;;;;;4885576;29;20048;-62
2023/04/03 02:23:26;;;;;;;3.72;1.85;;;0.30;99.90;;;;;;4886637;29;20059;-62
2023/04/03 02:25:52;;;;;;;5.72;1.23;;;0.30;99.90;;;;;;4890092;29;20534;-62
2023/04/03 02:28:21;;;;;;;5.50;1.15;;;0.30;99.90;;;;;;4872829;29;20144;-63
2023/04/03 02:30:48;;;;;;;6.22;1.60;;;0.30;99.90;;;;;;4885924;29;20113;-63
2023/04/03 02:33:15;;;;;;;7.25;0.98;;;0.30;99.90;;;;;;4870263;29;20136;-61
2023/04/03 02:35:42;;;;;;;9.85;2.33;;;0.30;99.90;;;;;;4870474;29;20049;-63
2023/04/03 02:38:10;;;;;;;8.25;1.38;;;0.30;99.90;;;;;;4888951;29;20139;-65
2023/04/03 02:40:37;;;;;;;7.40;1.60;;;0.30;99.90;;;;;;4888950;29;20078;-65
2023/04/03 02:43:04;;;;;;;6.07;1.40;;;0.30;99.90;;;;;;4888405;29;20084;-61
2023/04/03 02:45:32;;;;;;;5.18;1.60;;;0.30;99.90;;;;;;4885089;29;20529;-63
2023/04/03 02:47:59;;;;;;;6.80;1.25;;;0.30;99.90;;;;;;4887514;29;20056;-61
2023/04/03 02:50:26;;;;;;;4.60;1.45;;;0.30;99.90;;;;;;4887834;29;20147;-63
2023/04/03 02:52:53;;;;;;;13.30;1.95;;;0.40;99.90;;;;;;4884115;29;20087;-61
2023/04/03 02:55:20;;;;;;;5.53;3.45;;;0.40;99.90;;;;;;4872162;29;20147;-64
2023/04/03 02:57:49;;;;;;;5.05;1.95;;;0.40;99.90;;;;;;4885332;29;20067;-61
2023/04/03 03:00:17;;;;;;;7.47;1.33;;;0.40;99.90;;;;;;4873478;29;20044;-61
2023/04/03 03:02:44;;;;;;;6.55;1.40;;;0.40;99.90;;;;;;4884399;29;20060;-63
2023/04/03 03:05:11;;;;;;;10.25;1.65;;;0.40;99.90;;;;;;4871558;29;20140;-63
2023/04/03 03:07:38;;;;;;;6.47;1.83;;;0.50;99.90;;;;;;4882180;29;20139;-64
2023/04/03 03:10:05;;;;;;;5.50;1.80;;;0.50;99.90;;;;;;4887730;29;20517;-62
2023/04/03 03:12:32;;;;;;;6.85;1.85;;;0.50;99.90;;;;;;4890388;29;20053;-61
2023/04/03 03:14:59;;;;;;;11.20;1.30;;;0.50;99.90;;;;;;4892737;29;20052;-65
2023/04/03 03:17:26;;;;;;;4.35;2.17;;;0.50;99.90;;;;;;4889715;29;20062;-63
2023/04/03 03:19:53;;;;;;;7.95;1.35;;;0.50;99.90;;;;;;4873874;29;20059;-64
2023/04/03 03:22:20;;;;;;;9.07;2.00;;;0.50;99.90;;;;;;4892924;29;20087;-62
2023/04/03 03:24:47;;;;;;;15.70;2.88;;;0.50;99.90;;;;;;4887580;29;20052;-62
2023/04/03 03:27:15;;;;;;;6.13;2.63;;;0.50;99.90;;;;;;4890645;29;20724;-64
2023/04/03 03:29:42;;;;;;;7.13;3.92;;;0.50;99.90;;;;;;4871553;29;20056;-62
2023/04/03 03:32:10;;;;;;;9.52;1.35;;;0.50;99.90;;;;;;4888793;29;20049;-62
2023/04/03 03:34:37;;;;;;;6.68;1.88;;;0.50;99.90;;;;;;4892041;29;20053;-64
2023/04/03 03:37:05;;;;;;;6.35;1.63;;;0.50;99.90;;;;;;4888976;29;20148;-62
2023/04/03 03:39:31;;;;;;;10.00;2.88;;;0.50;99.90;;;;;;4889842;29;20127;-63
2023/04/03 03:41:58;;;;;;;4.20;2.15;;;0.50;99.90;;;;;;4891744;29;20139;-62
2023/04/03 03:44:25;;;;;;;8.70;1.50;;;0.50;99.90;;;;;;4889933;29;20148;-61
2023/04/03 03:46:53;;;;;;;5.80;2.08;;;0.50;99.90;;;;;;4887060;29;20060;-60
2023/04/03 03:49:20;;;;;;;8.65;2.25;;;0.50;99.90;;;;;;4890193;29;20878;-64
2023/04/03 03:51:47;;;;;;;8.02;1.70;;;0.50;99.90;;;;;;4885831;29;20057;-63
2023/04/03 03:54:14;;;;;;;8.82;1.60;;;0.60;99.90;;;;;;4874132;29;20419;-64
2023/04/03 03:56:41;;;;;;;8.45;1.33;;;0.60;99.90;;;;;;4889737;29;21715;-65
2023/04/03 03:59:08;;;;;;;7.50;2.45;;;0.60;99.90;;;;;;4887131;29;20568;-61
2023/04/03 04:01:35;;;;;;;9.18;1.92;;;0.60;99.90;;;;;;4886938;29;20084;-61
2023/04/03 04:04:02;;;;;;;6.65;1.50;;;0.50;99.90;;;;;;4887566;29;20057;-61
2023/04/03 04:06:31;;;;;;;12.82;1.92;;;0.50;99.90;;;;;;4870025;29;20061;-61
2023/04/03 04:09:02;;;;;;;6.13;1.75;;;0.50;99.90;;;;;;4871616;29;20095;-61
2023/04/03 04:11:29;;;;;;;13.57;2.88;;;0.50;99.90;;;;;;4876658;29;20056;-60
2023/04/03 04:13:56;;;;;;;7.53;2.38;;;0.50;99.90;;;;;;4886064;29;20044;-63
2023/04/03 04:16:26;;;;;;;7.85;1.83;;;0.50;99.90;;;;;;4884401;29;20502;-60
2023/04/03 04:18:54;;;;;;;5.53;1.80;;;0.50;99.90;;;;;;4870483;29;20080;-62
2023/04/03 04:21:22;;;;;;;8.75;1.52;;;0.50;99.90;;;;;;4885602;29;20052;-62
2023/04/03 04:23:51;;;;;;;8.90;1.52;;;0.50;99.90;;;;;;4873252;29;20053;-60
2023/04/03 04:26:20;;;;;;;6.60;1.80;;;0.60;99.90;;;;;;4886046;29;20049;-64
2023/04/03 04:28:47;;;;;;;11.77;2.00;;;0.60;99.90;;;;;;4872300;29;20049;-67
2023/04/03 04:31:14;;;;;;;13.25;2.65;;;0.60;99.90;;;;;;4885226;29;20096;-60
2023/04/03 04:33:41;;;;;;;31.05;6.72;;;0.60;99.90;;;;;;4866981;29;20080;-61
2023/04/03 04:36:10;;;;;;;19.42;4.35;;;0.70;99.90;;;;;;4886871;29;20080;-64
2023/04/03 04:38:38;;;;;;;12.45;1.95;;;0.70;99.90;;;;;;4884823;29;20053;-60
2023/04/03 04:41:05;;;;;;;17.63;2.28;;;0.70;99.90;;;;;;4871359;29;20135;-64
2023/04/03 04:43:33;;;;;;;5.55;2.35;;;0.70;99.90;;;;;;4885295;29;20147;-66
2023/04/03 04:46:06;;;;;;;9.15;1.80;;;0.80;99.90;;;;;;4888446;29;20055;-65
2023/04/03 04:48:37;;;;;;;11.43;1.48;;;0.80;99.90;;;;;;4888126;29;20092;-65
2023/04/03 04:51:05;;;;;;;5.35;2.72;;;0.90;99.90;;;;;;4885133;29;20067;-62
2023/04/03 04:53:34;;;;;;;8.48;2.25;;;0.90;99.90;;;;;;4884579;29;20497;-62
2023/04/03 04:56:02;;;;;;;18.20;3.90;;;1.00;99.90;;;;;;4887702;29;20054;-65
2023/04/03 04:58:30;;;;;;;9.93;2.33;;;1.10;99.90;;;;;;4879024;29;20048;-66
2023/04/03 05:01:02;;;;;;;14.13;4.10;;;1.10;99.90;;;;;;4888581;29;20108;-63
2023/04/03 05:03:31;;;;;;;20.25;2.53;;;1.20;99.90;;;;;;4882590;29;20096;-61
2023/04/03 05:05:58;;;;;;;6.25;1.33;;;1.20;99.90;;;;;;4867099;29;20068;-61
2023/04/03 05:08:25;;;;;;;6.63;2.15;;;1.30;99.90;;;;;;4887009;29;20464;-63
2023/04/03 05:10:53;;;;;;;11.32;1.88;;;1.30;99.90;;;;;;4887640;29;20076;-63
2023/04/03 05:13:23;;;;;;;2.22;1.00;;;1.30;99.90;;;;;;4890675;29;20048;-61
2023/04/03 05:15:50;;;;;;;9.60;1.48;;;1.30;99.90;;;;;;4889471;29;20064;-63
2023/04/03 05:18:17;;;;;;;7.65;2.10;;;1.30;99.90;;;;;;4883241;29;20053;-60
2023/04/03 05:20:44;;;;;;;8.95;1.90;;;1.30;99.90;;;;;;4886969;29;20049;-60
2023/04/03 05:23:11;;;;;;;9.55;2.47;;;1.40;99.90;;;;;;4889974;29;20663;-61
2023/04/03 05:25:40;;;;;;;10.00;1.80;;;1.40;99.90;;;;;;4887331;29;20069;-64
2023/04/03 05:28:07;;;;;;;10.63;2.08;;;1.40;99.90;;;;;;4886294;29;20547;-62
2023/04/03 05:30:34;;;;;;;3.20;1.45;;;1.40;99.90;;;;;;4883088;29;20415;-63
2023/04/03 05:33:02;;;;;;;9.13;2.53;;;1.40;99.90;;;;;;4886108;29;20499;-62
2023/04/03 05:35:41;;;;;;;14.23;3.03;;;1.40;99.90;;;;;;4878783;29;20532;-64
2023/04/03 05:38:11;;;;;;;6.53;1.67;;;1.50;99.90;;;;;;4869936;29;20045;-61
2023/04/03 05:40:38;;;;;;;11.77;4.03;;;1.50;99.90;;;;;;4871208;29;20056;-67
2023/04/03 05:43:06;;;;;;;14.20;2.85;;;1.50;99.90;;;;;;4872969;29;20044;-62
2023/04/03 05:45:36;;;;;;;7.07;1.90;;;1.60;99.90;;;;;;4865020;29;20049;-62
2023/04/03 05:48:03;;;;;;;13.02;1.50;;;1.60;99.90;;;;;;4886300;29;20057;-62
2023/04/03 05:50:31;;;;;;;8.02;1.92;;;1.60;99.90;;;;;;4883314;29;20056;-62
2023/04/03 05:52:59;;;;;;;15.25;2.00;;;1.60;99.90;;;;;;4872997;29;20056;-62
2023/04/03 05:55:29;;;;;;;8.32;1.70;;;1.60;99.90;;;;;;4884190;29;20053;-62
2023/04/03 05:57:56;;;;;;;6.68;1.40;;;1.60;99.90;;;;;;4888513;29;20052;-60
2023/04/03 06:00:23;;;;;;;6.53;1.85;;;1.60;99.90;;;;;;4887364;29;20056;-60
2023/04/03 06:02:59;;;;;;;8.40;1.85;;;1.60;99.90;;;;;;4884870;29;20057;-63
2023/04/03 06:05:26;;;;;;;13.68;2.28;;;1.60;99.90;;;;;;4876483;29;20045;-60
2023/04/03 06:07:53;;;;;;;10.77;1.27;;;1.60;99.90;;;;;;4844660;29;20427;-64
2023/04/03 06:10:20;;;;;;;8.13;3.40;;;1.50;99.90;;;;;;4849409;29;20062;-61
2023/04/03 06:12:47;;;;;;;4.78;0.90;;;1.50;99.90;;;;;;4850662;29;20519;-60
2023/04/03 06:15:16;;;;;;;2.58;1.60;;;1.50;99.90;;;;;;4865499;29;20085;-62
2023/04/03 06:17:43;;;;;;;15.68;2.35;;;1.50;99.90;;;;;;4845262;29;20517;-63
2023/04/03 06:20:11;;;;;;;7.30;2.22;;;1.60;99.90;;;;;;4849104;29;20046;-62
2023/04/03 06:22:39;;;;;;;9.65;2.30;;;1.60;99.90;;;;;;4844212;29;20056;-61
2023/04/03 06:25:06;;;;;;;12.73;1.50;;;1.70;99.90;;;;;;4850422;29;20056;-63
2023/04/03 06:27:33;;;;;;;3.25;1.02;;;1.70;99.90;;;;;;4847632;29;20088;-65
2023/04/03 06:30:00;;;;;;;13.38;3.92;;;1.70;99.90;;;;;;4848388;29;20145;-63
2023/04/03 06:32:27;;;;;;;10.73;4.13;;;1.70;99.90;;;;;;4846950;29;20141;-60
2023/04/03 06:34:55;;;;;;;5.05;2.22;;;1.80;99.90;;;;;;4849517;29;20058;-62
2023/04/03 06:37:25;;;;;;;2.53;1.00;;;1.80;99.90;;;;;;4848975;29;20053;-62
2023/04/03 06:39:52;;;;;;;;;;;1.90;99.90;;;;;;4844605;29;20125;-62
2023/04/03 06:42:19;;;;;;;5.60;1.25;;;2.00;99.90;;;;;;4849726;29;19929;-62
2023/04/03 06:44:53;;;;;;;5.32;1.30;;;2.00;99.90;;;;;;4849531;29;20696;-61
2023/04/03 06:47:20;;;;;;;1.85;1.35;;;2.00;99.90;;;;;;4846558;29;20054;-61
2023/04/03 06:49:47;;;;;;;8.55;1.27;;;2.00;99.90;;;;;;4848832;29;20053;-62
2023/04/03 06:52:14;;;;;;;5.60;1.63;;;1.90;99.90;;;;;;4853575;29;20648;-63
2023/04/03 06:54:41;;;;;;;6.72;1.90;;;2.00;99.90;;;;;;4851018;29;20150;-63
2023/04/03 06:57:08;;;;;;;9.15;1.60;;;2.00;99.90;;;;;;4850740;29;20048;-61
2023/04/03 06:59:36;;;;;;;5.97;1.30;;;2.00;99.90;;;;;;4850368;29;20069;-63
2023/04/03 07:02:04;;;;;;;8.80;1.98;;;2.00;99.90;;;;;;4866990;29;20500;-65
2023/04/03 07:04:31;;;;;;;10.63;1.30;;;1.90;99.90;;;;;;4853314;29;20069;-63
2023/04/03 07:06:58;;;;;;;4.40;1.55;;;2.00;99.90;;;;;;4886752;29;20598;-62
2023/04/03 07:09:25;;;;;;;5.32;1.77;;;1.90;99.90;;;;;;4884801;29;20052;-66
2023/04/03 07:11:51;;;;;;;7.10;2.20;;;2.00;99.90;;;;;;4888950;29;20765;-61
2023/04/03 07:14:18;;;;;;;4.47;1.50;;;2.00;99.90;;;;;;4891100;29;20055;-62
2023/04/03 07:16:45;;;;;;;4.20;1.85;;;2.00;99.90;;;;;;4892093;29;20056;-62
2023/04/03 07:19:12;;;;;;;2.70;1.58;;;2.10;99.90;;;;;;4894512;29;20045;-62
2023/04/03 07:21:40;;;;;;;5.18;1.13;;;2.00;99.90;;;;;;4890126;29;20056;-62
2023/04/03 07:24:07;;;;;;;5.22;1.75;;;2.00;99.90;;;;;;4891532;29;20238;-60
2023/04/03 07:26:40;;;;;;;4.03;1.67;;;2.00;99.90;;;;;;4884405;29;20052;-62
2023/04/03 07:29:08;;;;;;;2.20;0.93;;;2.00;99.90;;;;;;4893563;29;20053;-62
2023/04/03 07:31:35;;;;;;;4.72;1.25;;;2.00;99.90;;;;;;4890260;29;20079;-61
2023/04/03 07:34:02;;;;;;;5.45;0.98;;;2.10;99.90;;;;;;4890091;29;20076;-63
2023/04/03 07:36:33;;;;;;;12.13;1.80;;;2.10;99.90;;;;;;4890363;29;20112;-59
2023/04/03 07:38:59;;;;;;;8.68;1.70;;;2.20;99.90;;;;;;4889321;29;20488;-60
2023/04/03 07:41:26;;;;;;;4.78;1.13;;;2.10;99.90;;;;;;4888721;29;20067;-63
2023/04/03 07:43:54;;;;;;;6.78;1.63;;;2.10;99.90;;;;;;4890128;29;20061;-62
2023/04/03 07:46:21;;;;;;;9.25;1.35;;;2.10;99.90;;;;;;4890844;29;20049;-61
2023/04/03 07:48:49;;;;;;;1.55;0.85;;;2.00;99.90;;;;;;4889442;29;20407;-66
2023/04/03 07:51:16;;;;;;;4.88;1.27;;;2.00;99.90;;;;;;4890601;29;20520;-65
2023/04/03 07:53:43;;;;;;;3.25;1.17;;;2.00;99.90;;;;;;4886652;29;20804;-62
2023/04/03 07:56:10;;;;;;;4.63;1.20;;;2.00;99.90;;;;;;4889564;29;20172;-65
2023/04/03 07:58:37;;;;;;;5.60;2.28;;;2.00;99.90;;;;;;4887071;29;20057;-63
2023/04/03 08:01:04;;;;;;;5.05;1.10;;;2.00;99.90;;;;;;4889592;29;20053;-62
2023/04/03 08:03:31;;;;;;;10.00;1.65;;;2.10;99.90;;;;;;4884941;29;20053;-62
2023/04/03 08:06:06;;;;;;;6.85;1.65;;;2.20;99.90;;;;;;4887145;29;20590;-61
2023/04/03 08:08:41;;;;;;;2.55;1.67;;;2.20;99.90;;;;;;4888824;29;20489;-65
2023/04/03 08:11:08;;;;;;;2.45;1.23;;;2.10;99.90;;;;;;4888168;29;20068;-60
2023/04/03 08:13:35;;;;;;;6.07;1.52;;;2.10;99.90;;;;;;4886436;29;20100;-63
2023/04/03 08:16:15;;;;;;;14.10;1.60;;;2.10;99.90;;;;;;4889606;29;20048;-62
2023/04/03 08:18:42;;;;;;;3.55;1.15;;;2.30;99.90;;;;;;4891362;29;20052;-63
2023/04/03 08:21:11;;;;;;;2.53;0.98;;;2.30;99.90;;;;;;4888167;29;20056;-66
2023/04/03 08:23:39;;;;;;;11.30;1.27;;;2.30;99.90;;;;;;4888747;29;20502;-65
2023/04/03 08:26:11;;;;;;;12.57;1.52;;;2.20;99.90;;;;;;4891587;29;20049;-65
2023/04/03 08:28:39;;;;;;;9.57;1.92;;;2.20;99.90;;;;;;4891930;29;20062;-64
2023/04/03 08:31:10;;;;;;;4.72;1.27;;;2.20;99.90;;;;;;4886357;29;20083;-68
2023/04/03 08:33:39;;;;;;;6.18;1.83;;;2.20;99.90;;;;;;4887562;29;20135;-61
2023/04/03 08:36:19;;;;;;;3.75;1.13;;;2.20;99.90;;;;;;4889111;29;20678;-66
2023/04/03 08:38:46;;;;;;;4.10;1.20;;;2.20;99.90;;;;;;4886362;29;20045;-62
2023/04/03 08:41:33;;;;;;;4.07;1.52;;;2.20;99.90;;;;;;4891120;29;20067;-62
2023/04/03 08:44:24;;;;;;;6.97;1.35;;;2.20;99.90;;;;;;4887048;29;20108;-62
2023/04/03 08:47:06;;;;;;;;;;;2.20;99.90;;;;;;4885281;29;20049;-61
2023/04/03 08:49:40;;;;;;;5.47;1.80;;;2.20;99.90;;;;;;4887111;29;20309;-63
2023/04/03 08:52:14;;;;;;;9.35;2.35;;;2.30;99.90;;;;;;4888882;29;20614;-63
2023/04/03 08:54:53;;;;;;;6.65;1.80;;;2.30;99.90;;;;;;4888155;29;20071;-61
2023/04/03 08:57:38;;;;;;;2.03;0.93;;;2.40;99.90;;;;;;4889371;29;20330;-61
2023/04/03 09:00:28;;;;;;;3.78;1.20;;;2.40;99.90;;;;;;4876954;29;20634;-65
2023/04/03 09:02:56;;;;;;;3.45;1.50;;;2.40;99.90;;;;;;4886692;29;20076;-59
2023/04/03 09:05:39;;;;;;;3.15;1.52;;;2.50;99.90;;;;;;4887385;29;20079;-61
2023/04/03 09:08:21;;;;;;;7.30;0.98;;;2.40;99.90;;;;;;4888571;29;20033;-59
2023/04/03 09:10:52;;;;;;;4.50;1.33;;;2.40;99.90;;;;;;4885784;29;20057;-62
2023/04/03 09:13:40;;;;;;;7.93;1.30;;;2.40;99.90;;;;;;4873797;29;20080;-61
2023/04/03 09:16:30;;;;;;;7.43;1.42;;;2.30;99.90;;;;;;4886595;29;20135;-60
2023/04/03 09:19:15;;;;;;;10.20;1.60;;;2.30;99.90;;;;;;4884518;29;20451;-64
2023/04/03 09:21:42;;;;;;;4.90;1.33;;;2.40;99.90;;;;;;4882734;29;20769;-63
2023/04/03 09:24:14;;;;;;;9.73;2.00;;;2.40;99.90;;;;;;4888756;29;20048;-60
2023/04/03 09:26:48;;;;;;;8.18;2.17;;;2.50;99.90;;;;;;4889050;29;20407;-61
2023/04/03 09:29:21;;;;;;;8.25;1.80;;;2.50;99.90;;;;;;4887508;29;20099;-63
2023/04/03 09:31:52;;;;;;;10.55;1.77;;;2.70;99.90;;;;;;4866474;29;20068;-61
2023/04/03 09:34:31;;;;;;;9.90;2.33;;;2.70;99.90;;;;;;4883382;29;20515;-63
2023/04/03 09:37:05;;;;;;;5.95;1.42;;;2.80;99.90;;;;;;4888560;29;20392;-63
2023/04/03 09:39:49;;;;;;;6.75;1.10;;;2.90;99.90;;;;;;4885708;29;20052;-61
2023/04/03 09:42:22;;;;;;;7.20;2.40;;;2.90;99.90;;;;;;4873496;29;20421;-64
2023/04/03 09:44:59;;;;;;;9.75;1.63;;;2.90;99.90;;;;;;4888320;29;20139;-61
2023/04/03 09:47:34;;;;;;;7.65;1.50;;;2.90;99.90;;;;;;4884870;29;20056;-63
2023/04/03 09:50:14;;;;;;;5.97;1.90;;;3.00;99.90;;;;;;4886289;29;20056;-67
2023/04/03 09:52:47;;;;;;;7.75;1.55;;;2.90;99.90;;;;;;4888857;29;20578;-61
2023/04/03 09:55:15;;;;;;;6.75;2.65;;;3.00;99.90;;;;;;4885606;29;20060;-62
2023/04/03 09:57:43;;;;;;;6.88;1.90;;;3.10;99.90;;;;;;4884231;29;20055;-67
2023/04/03 10:00:25;;;;;;;5.93;1.65;;;3.00;99.90;;;;;;4886655;29;20145;-62
2023/04/03 10:02:58;;;;;;;5.65;2.40;;;3.10;99.90;;;;;;4886415;29;20383;-63
2023/04/03 10:05:28;;;;;;;10.70;1.33;;;3.10;99.90;;;;;;4882246;29;20056;-61
2023/04/03 10:08:13;;;;;;;12.73;1.88;;;3.20;99.90;;;;;;4888597;29;20076;-60
2023/04/03 10:10:46;;;;;;;3.80;1.50;;;3.10;99.90;;;;;;4886416;29;20052;-63
2023/04/03 10:13:20;;;;;;;7.25;2.80;;;3.10;99.90;;;;;;4888460;29;20091;-62
2023/04/03 10:16:01;;;;;;;3.95;1.50;;;3.10;99.90;;;;;;4889315;29;20183;-63
2023/04/03 10:18:56;;;;;;;4.57;0.95;;;3.10;99.90;;;;;;4889141;29;20080;-63
2023/04/03 10:21:30;;;;;;;7.68;1.23;;;3.00;99.90;;;;;;4881544;29;20597;-62
2023/04/03 10:24:15;;;;;;;4.47;1.33;;;3.00;99.90;;;;;;4887599;29;20091;-62
2023/04/03 10:26:53;;;;;;;5.75;1.63;;;3.10;99.90;;;;;;4886622;29;20384;-62
2023/04/03 10:29:42;;;;;;;4.03;1.55;;;3.10;99.90;;;;;;4888474;29;20052;-59
2023/04/03 10:32:42;;;;;;;3.88;1.40;;;3.20;99.90;;;;;;4886529;29;20095;-61
2023/04/03 10:35:25;;;;;;;4.18;1.60;;;3.20;99.90;;;;;;4890703;29;20092;-60
2023/04/03 10:38:09;;;;;;;6.57;1.55;;;3.40;99.90;;;;;;4885506;29;20052;-62
2023/04/03 10:41:10;;;;;;;6.18;1.30;;;3.40;99.90;;;;;;4889692;29;20076;-63
2023/04/03 10:44:12;;;;;;;6.95;1.73;;;3.40;99.90;;;;;;4888092;29;20048;-62
2023/04/03 10:46:48;;;;;;;6.32;1.65;;;3.40;99.90;;;;;;4838843;29;20152;-65
2023/04/03 10:49:50;;;;;;;4.63;1.23;;;3.40;99.90;;;;;;4890269;29;20108;-65
2023/04/03 10:52:42;;;;;;;6.00;1.90;;;3.30;99.90;;;;;;4886678;29;20056;-61
2023/04/03 10:55:24;;;;;;;3.10;1.27;;;3.30;99.90;;;;;;4875691;29;20070;-60
2023/04/03 10:57:52;;;;;;;5.40;1.80;;;3.30;99.90;;;;;;4888128;29;20495;-63
2023/04/03 11:00:48;;;;;;;3.08;1.45;;;3.40;99.90;;;;;;4872497;29;20550;-63
2023/04/03 11:03:26;;;;;;;18.48;2.28;;;3.30;99.90;;;;;;4888673;29;20439;-65
2023/04/03 11:05:55;;;;;;;9.73;3.33;;;3.50;99.90;;;;;;4888719;29;20060;-60
2023/04/03 11:08:34;;;;;;;4.10;1.70;;;3.50;99.90;;;;;;4887422;29;20147;-62
2023/04/03 11:11:12;;;;;;;4.50;1.20;;;3.40;99.90;;;;;;4885621;29;20051;-63
2023/04/03 11:14:13;;;;;;;3.05;1.27;;;3.50;99.90;;;;;;4884017;29;20120;-66
2023/04/03 11:16:47;;;;;;;5.03;1.60;;;3.40;99.90;;;;;;4874033;29;20155;-64
2023/04/03 11:19:29;;;;;;;3.72;3.20;;;3.50;99.90;;;;;;4886935;29;20139;-63
2023/04/03 11:22:26;;;;;;;3.33;1.40;;;3.60;99.90;;;;;;4887663;29;20127;-64
2023/04/03 11:25:22;;;;;;;3.67;1.20;;;3.40;99.90;;;;;;4862830;29;20060;-60
2023/04/03 11:27:56;;;;;;;4.78;1.42;;;3.20;99.90;;;;;;4884442;29;20143;-60
2023/04/03 11:30:33;;;;;;;8.55;1.50;;;3.30;99.90;;;;;;4888641;29;20108;-66
2023/04/03 11:33:33;;;;;;;3.00;1.77;;;3.40;99.90;;;;;;4889957;29;20551;-62
2023/04/03 11:36:09;;;;;;;2.35;1.40;;;3.30;99.90;;;;;;4888121;29;20791;-63
2023/04/03 11:39:29;;;;;;;8.15;1.38;;;3.50;99.90;;;;;;4890302;29;20048;-60
2023/04/03 11:42:30;;;;;;;7.13;1.70;;;3.60;99.90;;;;;;4858262;29;20047;-60
2023/04/03 11:45:23;;;;;;;7.57;2.40;;;3.70;99.90;;;;;;4889612;29;20052;-59
2023/04/03 11:47:58;;;;;;;6.63;1.77;;;3.80;99.90;;;;;;4886141;29;20136;-64
2023/04/03 11:50:41;;;;;;;7.50;0.90;;;3.70;99.90;;;;;;4886001;29;20438;-60
2023/04/03 11:53:11;;;;;;;12.90;1.73;;;3.70;99.90;;;;;;4889553;29;20072;-59
2023/04/03 11:55:41;;;;;;;10.02;1.20;;;3.40;99.90;;;;;;4887809;29;20079;-63
2023/04/03 11:58:20;;;;;;;7.60;1.83;;;3.40;99.90;;;;;;4889234;29;20127;-59
2023/04/03 12:00:55;;;;;;;7.38;1.15;;;3.50;99.90;;;;;;4888939;29;20053;-60
2023/04/03 12:03:28;;;;;;;9.18;2.05;;;3.50;99.90;;;;;;4889549;29;20602;-62
2023/04/03 12:05:57;;;;;;;3.08;2.13;;;3.50;99.90;;;;;;4886360;29;20060;-63
2023/04/03 12:08:29;;;;;;;5.13;0.95;;;3.60;99.90;;;;;;4888571;29;20045;-61
2023/04/03 12:11:08;;;;;;;6.93;1.40;;;3.60;99.90;;;;;;4888183;29;20053;-61
2023/04/03 12:13:55;;;;;;;6.72;1.13;;;3.70;99.90;;;;;;4891168;29;20083;-62
2023/04/03 12:16:27;;;;;;;9.98;1.65;;;3.60;99.90;;;;;;4885755;29;20052;-60
2023/04/03 12:19:03;;;;;;;2.58;1.23;;;3.50;99.90;;;;;;4881103;29;20066;-65
2023/04/03 12:21:48;;;;;;;3.67;2.63;;;3.40;99.90;;;;;;4879758;29;20089;-60
2023/04/03 12:24:15;;;;;;;2.92;1.15;;;3.40;99.90;;;;;;4875691;29;20048;-66
2023/04/03 12:27:01;;;;;;;3.35;1.05;;;3.50;99.90;;;;;;4872010;29;20222;-64
2023/04/03 12:29:32;;;;;;;11.45;1.13;;;3.50;99.90;;;;;;4881058;29;20068;-60
2023/04/03 12:32:36;;;;;;;7.68;1.00;;;3.50;99.90;;;;;;4886504;29;20056;-62
2023/04/03 12:35:25;;;;;;;4.53;1.25;;;3.50;99.90;;;;;;4886758;29;20155;-63
2023/04/03 12:38:16;;;;;;;7.88;1.88;;;3.50;99.90;;;;;;4885595;29;20052;-59
2023/04/03 12:41:08;;;;;;;6.45;1.75;;;3.70;99.90;;;;;;4886769;29;20136;-62
2023/04/03 12:44:18;;;;;;;9.00;1.10;;;3.60;99.90;;;;;;4885332;29;20108;-62
2023/04/03 12:46:50;;;;;;;7.80;1.50;;;3.60;99.90;;;;;;4884062;29;20170;-63
2023/04/03 12:49:33;;;;;;;3.10;1.08;;;3.50;99.90;;;;;;4887149;29;20059;-60
2023/04/03 12:52:05;;;;;;;4.70;1.38;;;3.40;99.90;;;;;;4868204;29;20101;-62
2023/04/03 12:54:36;;;;;;;6.78;1.40;;;3.40;99.90;;;;;;4887819;29;20147;-62
2023/04/03 12:57:23;;;;;;;5.15;1.30;;;3.50;99.90;;;;;;4887575;29;20138;-61
2023/04/03 12:59:50;;;;;;;9.00;1.42;;;3.60;99.90;;;;;;4885319;29;20053;-63
2023/04/03 13:02:30;;;;;;;6.13;1.30;;;3.60;99.90;;;;;;4885988;29;20139;-61
2023/04/03 13:05:04;;;;;;;14.63;1.77;;;3.60;99.90;;;;;;4885852;29;20075;-61
2023/04/03 13:07:38;;;;;;;7.00;1.85;;;3.50;99.90;;;;;;4883661;29;20139;-61
2023/04/03 13:10:08;;;;;;;3.88;1.50;;;3.50;99.90;;;;;;4885167;29;20497;-62
2023/04/03 13:12:53;;;;;;;8.45;1.58;;;3.50;99.90;;;;;;4887349;29;20056;-65
2023/04/03 13:15:30;;;;;;;7.30;1.88;;;3.50;99.90;;;;;;4886809;29;20614;-63
2023/04/03 13:17:57;;;;;;;7.70;1.25;;;3.60;99.90;;;;;;4881691;29;20056;-60
2023/04/03 13:20:24;;;;;;;14.38;2.00;;;3.60;99.90;;;;;;4886751;29;20044;-63
2023/04/03 13:23:02;;;;;;;9.48;2.45;;;3.60;99.90;;;;;;4887766;29;20045;-63